Time;durP1;ratioP1;P1;durP2;ratioP2;P2;SDS_P1;SDS_P2;PMS_P1;PMS_P2;Temp;Humidity;BMP_temperature;BMP_pressure;BME280_temperature;BME280_humidity;BME280_pressure;Samples;Min_cycle;Max_cycle;Signal;HPM_P1;HPM_P2
2024/03/22 00:00:19;;;;;;;40.80;20.30;;;;;;;5.60;67.16;99312.87;105416;1258;97917;-81
2024/03/22 00:03:06;;;;;;;36.40;20.30;;;;;;;5.60;67.37;99306.52;105422;1257;110233;-81
2024/03/22 00:05:34;;;;;;;39.70;19.80;;;;;;;5.61;67.28;99299.63;105367;1258;98096;-80
2024/03/22 00:08:02;;;;;;;40.40;20.30;;;;;;;5.61;67.55;99292.76;105657;1258;97994;-81
2024/03/22 00:10:29;;;;;;;40.50;20.40;;;;;;;5.61;67.52;99290.67;106677;1253;110960;-80
2024/03/22 00:12:57;;;;;;;38.10;19.60;;;;;;;5.62;67.46;99288.48;105649;1256;97926;-80
2024/03/22 00:15:24;;;;;;;34.80;18.80;;;;;;;5.64;67.43;99286.81;105620;1254;107650;-81
2024/03/22 00:17:52;;;;;;;40.00;20.20;;;;;;;5.65;67.58;99280.41;105467;1256;99243;-79
2024/03/22 00:20:19;;;;;;;37.00;18.80;;;;;;;5.69;67.61;99277.27;105689;1257;98992;-80
2024/03/22 00:22:47;;;;;;;37.10;20.50;;;;;;;5.71;67.60;99275.71;105460;1255;109396;-80
2024/03/22 00:25:15;;;;;;;38.50;21.50;;;;;;;5.73;67.64;99272.85;105467;1253;99171;-81
2024/03/22 00:27:43;;;;;;;35.90;19.20;;;;;;;5.74;67.54;99270.98;106206;1257;107637;-80
2024/03/22 00:30:10;;;;;;;38.30;20.80;;;;;;;5.75;67.50;99267.63;106665;1253;98086;-79
2024/03/22 00:32:38;;;;;;;39.60;19.80;;;;;;;5.77;67.64;99263.28;106614;1253;97983;-80
2024/03/22 00:35:06;;;;;;;33.60;18.00;;;;;;;5.81;67.77;99262.23;105782;1256;110973;-80
2024/03/22 00:37:33;;;;;;;31.10;17.10;;;;;;;5.86;67.71;99258.66;105735;1257;98048;-80
2024/03/22 00:40:01;;;;;;;36.10;17.00;;;;;;;5.90;67.60;99258.77;105416;1253;107427;-80
2024/03/22 00:42:29;;;;;;;34.50;17.50;;;;;;;5.95;67.83;99252.90;105666;1253;98067;-79
2024/03/22 00:44:57;;;;;;;37.30;17.80;;;;;;;5.99;67.86;99249.36;105412;1258;98664;-80
2024/03/22 00:47:25;;;;;;;39.30;19.50;;;;;;;6.02;67.51;99247.30;105524;1257;110831;-80
2024/03/22 00:49:53;;;;;;;42.70;19.40;;;;;;;6.05;67.69;99246.30;106168;1257;97800;-80
2024/03/22 00:52:20;;;;;;;37.20;19.00;;;;;;;6.06;67.69;99241.46;106171;1257;105269;-80
2024/03/22 00:54:48;;;;;;;47.80;22.50;;;;;;;6.07;67.78;99245.13;105379;1259;98284;-80
2024/03/22 00:57:15;;;;;;;45.90;22.20;;;;;;;6.08;67.82;99242.79;105466;1257;97984;-81
2024/03/22 00:59:43;;;;;;;40.10;21.00;;;;;;;6.09;67.77;99240.08;105486;1257;110427;-81
2024/03/22 01:02:11;;;;;;;37.60;20.30;;;;;;;6.09;67.74;99238.15;105887;1267;97992;-82
2024/03/22 01:04:38;;;;;;;39.60;19.70;;;;;;;6.09;67.65;99233.73;105352;1257;107313;-80
2024/03/22 01:07:06;;;;;;;38.90;18.40;;;;;;;6.11;67.75;99229.94;106265;1257;97974;-80
2024/03/22 01:09:33;;;;;;;37.80;18.00;;;;;;;6.14;67.84;99220.80;105839;1257;98061;-81
2024/03/22 01:12:01;;;;;;;34.10;17.10;;;;;;;6.17;67.87;99215.55;105638;1253;111000;-81
2024/03/22 01:14:29;;;;;;;32.00;16.20;;;;;;;6.19;67.83;99208.39;105825;1256;99903;-81
2024/03/22 01:16:56;;;;;;;29.30;16.20;;;;;;;6.21;67.86;99205.45;105716;1270;107629;-81
2024/03/22 01:19:24;;;;;;;31.50;16.70;;;;;;;6.23;67.79;99201.70;105617;1253;98468;-81
2024/03/22 01:21:51;;;;;;;30.30;17.10;;;;;;;6.24;67.92;99195.98;105800;1253;98019;-81
2024/03/22 01:24:19;;;;;;;26.30;14.30;;;;;;;6.27;67.76;99194.09;105723;1256;111317;-82
2024/03/22 01:26:47;;;;;;;29.00;15.60;;;;;;;6.28;67.81;99191.05;106841;1255;98452;-81
2024/03/22 01:29:15;;;;;;;31.40;16.50;;;;;;;6.30;67.88;99188.15;105959;1257;106367;-81
2024/03/22 01:31:42;;;;;;;30.50;14.90;;;;;;;6.31;68.04;99188.23;105492;1254;97991;-81
2024/03/22 01:34:10;;;;;;;31.10;15.00;;;;;;;6.32;67.90;99185.34;106818;1253;97765;-81
2024/03/22 01:36:38;;;;;;;33.80;18.40;;;;;;;6.33;68.18;99186.71;105506;1253;111239;-80
2024/03/22 01:39:05;;;;;;;32.10;16.10;;;;;;;6.34;68.07;99192.99;106178;1253;97856;-81
2024/03/22 01:41:34;;;;;;;27.50;15.50;;;;;;;6.35;68.10;99195.05;107139;1258;107658;-81
2024/03/22 01:44:01;;;;;;;30.90;15.70;;;;;;;6.35;68.00;99192.57;105540;1256;97995;-81
2024/03/22 01:46:29;;;;;;;29.00;16.00;;;;;;;6.37;68.14;99195.67;105440;1258;97987;-81
2024/03/22 01:48:57;;;;;;;31.60;16.50;;;;;;;6.37;67.98;99195.48;105440;1253;111282;-81
2024/03/22 01:51:24;;;;;;;31.90;17.00;;;;;;;6.37;68.19;99194.27;105571;1253;98442;-81
2024/03/22 01:53:53;;;;;;;30.20;15.60;;;;;;;6.37;68.10;99195.84;105411;1267;107554;-81
2024/03/22 01:56:21;;;;;;;31.20;16.60;;;;;;;6.36;68.05;99192.89;105724;1257;97964;-81
2024/03/22 01:58:49;;;;;;;32.10;16.00;;;;;;;6.36;67.94;99200.45;106303;1253;97904;-81
2024/03/22 02:01:16;;;;;;;28.90;15.80;;;;;;;6.36;68.21;99197.29;105908;1257;111282;-81
2024/03/22 02:03:44;;;;;;;31.30;16.70;;;;;;;6.37;68.19;99197.42;105372;1257;98233;-80
2024/03/22 02:06:11;;;;;;;29.00;14.90;;;;;;;6.37;68.38;99197.08;105580;1253;107633;-81
2024/03/22 02:08:41;;;;;;;28.00;15.00;;;;;;;6.38;68.17;99195.94;105568;1258;98061;-81
2024/03/22 02:11:09;;;;;;;30.00;17.10;;;;;;;6.39;68.33;99194.11;105597;1256;97962;-81
2024/03/22 02:13:36;;;;;;;28.00;14.90;;;;;;;6.41;68.30;99198.09;105350;1253;111388;-81
2024/03/22 02:16:05;;;;;;;24.90;14.60;;;;;;;6.42;68.47;99199.64;105403;1253;99199;-81
2024/03/22 02:18:32;;;;;;;29.80;14.60;;;;;;;6.43;68.41;99200.66;106640;1257;108298;-81
2024/03/22 02:21:00;;;;;;;28.00;15.80;;;;;;;6.44;68.29;99192.65;105610;1257;97983;-81
2024/03/22 02:23:38;;;;;;;29.30;15.20;;;;;;;6.46;68.28;99195.57;105709;1257;97883;-81
2024/03/22 02:26:07;;;;;;;27.50;13.30;;;;;;;6.48;68.44;99198.42;105391;1257;111368;-81
2024/03/22 02:28:35;;;;;;;24.20;13.90;;;;;;;6.49;68.54;99198.19;105596;1257;97968;-80
2024/03/22 02:31:06;;;;;;;22.80;14.30;;;;;;;6.50;68.50;99200.80;105801;1266;107639;-80
2024/03/22 02:33:33;;;;;;;28.10;14.30;;;;;;;6.51;68.56;99199.31;105651;1257;97955;-80
2024/03/22 02:36:01;;;;;;;27.70;13.80;;;;;;;6.52;68.70;99198.04;106265;1257;97984;-80
2024/03/22 02:38:28;;;;;;;25.40;14.30;;;;;;;6.53;68.53;99196.58;106204;1253;109938;-80
2024/03/22 02:40:58;;;;;;;27.30;16.00;;;;;;;6.53;68.60;99194.78;105609;1254;97969;-80
2024/03/22 02:43:25;;;;;;;24.40;13.50;;;;;;;6.55;68.71;99191.55;105418;1266;106524;-80
2024/03/22 02:45:53;;;;;;;25.30;11.90;;;;;;;6.54;68.64;99192.80;105601;1253;98632;-80
2024/03/22 02:48:20;;;;;;;20.60;12.10;;;;;;;6.54;68.58;99186.45;105409;1257;99443;-80
2024/03/22 02:50:48;;;;;;;25.20;12.20;;;;;;;6.54;68.68;99184.34;105599;1254;111401;-80
2024/03/22 02:53:15;;;;;;;22.90;13.30;;;;;;;6.54;68.71;99184.69;105371;1258;98017;-80
2024/03/22 02:55:43;;;;;;;21.20;12.20;;;;;;;6.55;68.86;99188.71;106478;1257;107259;-80
2024/03/22 02:58:10;;;;;;;29.00;14.00;;;;;;;6.54;68.67;99192.47;105882;1256;97962;-80
2024/03/22 03:00:38;;;;;;;25.20;13.40;;;;;;;6.51;68.58;99197.58;105564;1253;98063;-80
2024/03/22 03:03:06;;;;;;;26.10;14.70;;;;;;;6.52;68.64;99200.33;105789;1253;110278;-80
2024/03/22 03:05:34;;;;;;;23.90;13.10;;;;;;;6.52;68.68;99190.62;105575;1258;98355;-81
2024/03/22 03:08:03;;;;;;;23.50;13.10;;;;;;;6.53;68.70;99194.26;105416;1257;107221;-81
2024/03/22 03:10:31;;;;;;;23.90;13.40;;;;;;;6.57;68.82;99192.85;105557;1261;98891;-82
2024/03/22 03:12:58;;;;;;;21.70;12.30;;;;;;;6.59;68.59;99196.61;106261;1253;97941;-80
2024/03/22 03:15:26;;;;;;;24.20;12.80;;;;;;;6.63;68.81;99194.11;106004;1257;110411;-82
2024/03/22 03:17:53;;;;;;;22.50;12.10;;;;;;;6.67;68.61;99191.95;105444;1253;97885;-82
2024/03/22 03:20:21;;;;;;;23.10;13.10;;;;;;;6.71;68.82;99195.29;105602;1258;108928;-80
2024/03/22 03:22:48;;;;;;;25.20;13.80;;;;;;;6.72;68.65;99191.34;105387;1253;99187;-80
2024/03/22 03:25:16;;;;;;;22.60;12.60;;;;;;;6.73;68.66;99193.61;105694;1257;97977;-82
2024/03/22 03:27:43;;;;;;;22.60;12.70;;;;;;;6.71;68.98;99188.55;105388;1253;113118;-81
2024/03/22 03:30:11;;;;;;;24.80;12.20;;;;;;;6.69;68.91;99191.28;105606;1257;97936;-81
2024/03/22 03:32:39;;;;;;;28.60;13.90;;;;;;;6.67;68.89;99187.00;106640;1253;107784;-81
2024/03/22 03:35:06;;;;;;;22.50;12.80;;;;;;;6.67;68.86;99183.16;105833;1257;97954;-80
2024/03/22 03:37:34;;;;;;;25.00;12.70;;;;;;;6.66;68.96;99188.45;105402;1257;98043;-80
2024/03/22 03:40:02;;;;;;;24.50;12.40;;;;;;;6.64;68.85;99185.41;105582;1258;111030;-80
2024/03/22 03:42:29;;;;;;;21.70;12.00;;;;;;;6.60;68.81;99189.00;105665;1257;97943;-80
2024/03/22 03:44:57;;;;;;;24.20;12.30;;;;;;;6.56;68.76;99184.98;105469;1253;107881;-80
2024/03/22 03:47:24;;;;;;;24.80;12.40;;;;;;;6.54;69.09;99189.11;105580;1255;99295;-82
2024/03/22 03:49:52;;;;;;;23.10;13.60;;;;;;;6.52;69.01;99184.99;105677;1258;97965;-80
2024/03/22 03:52:19;;;;;;;24.30;11.70;;;;;;;6.52;69.08;99188.02;106433;1253;111284;-81
2024/03/22 03:54:47;;;;;;;21.70;13.40;;;;;;;6.52;69.16;99186.94;105616;1255;97968;-81
2024/03/22 03:57:15;;;;;;;21.60;12.60;;;;;;;6.50;69.27;99186.14;105579;1258;105490;-81
2024/03/22 03:59:42;;;;;;;27.60;11.90;;;;;;;6.49;69.07;99183.04;105896;1253;98845;-80
2024/03/22 04:02:10;;;;;;;20.70;11.40;;;;;;;6.49;69.14;99183.59;105847;1253;97997;-81
2024/03/22 04:04:39;;;;;;;19.10;11.00;;;;;;;6.45;69.04;99181.67;105611;1256;110867;-81
2024/03/22 04:07:06;;;;;;;20.30;11.70;;;;;;;6.42;68.95;99178.86;105998;1253;97904;-82
2024/03/22 04:09:34;;;;;;;20.90;11.30;;;;;;;6.38;69.00;99183.45;106780;1257;106252;-81
2024/03/22 04:12:02;;;;;;;20.80;11.60;;;;;;;6.35;69.12;99183.94;106160;1258;97947;-81
2024/03/22 04:14:30;;;;;;;21.70;12.90;;;;;;;6.34;69.06;99182.25;106052;1253;97907;-82
2024/03/22 04:16:57;;;;;;;21.60;11.50;;;;;;;6.36;69.31;99187.09;105829;1253;110699;-81
2024/03/22 04:19:25;;;;;;;21.20;11.20;;;;;;;6.36;69.28;99187.27;105911;1255;97905;-80
2024/03/22 04:21:52;;;;;;;26.50;12.30;;;;;;;6.36;69.40;99187.09;105969;1257;108017;-81
2024/03/22 04:24:20;;;;;;;24.90;12.70;;;;;;;6.37;69.19;99181.73;105619;1259;98086;-80
2024/03/22 04:26:47;;;;;;;21.70;12.60;;;;;;;6.37;69.42;99181.02;105693;1257;99209;-80
2024/03/22 04:29:15;;;;;;;22.80;12.00;;;;;;;6.37;69.39;99181.39;106286;1257;111253;-81
2024/03/22 04:31:42;;;;;;;19.70;12.20;;;;;;;6.38;69.45;99185.74;106740;1253;97979;-80
2024/03/22 04:34:10;;;;;;;21.60;12.60;;;;;;;6.39;69.49;99186.91;105825;1266;107180;-81
2024/03/22 04:36:38;;;;;;;21.30;12.90;;;;;;;6.39;69.61;99190.64;105595;1259;99378;-80
2024/03/22 04:39:05;;;;;;;24.20;13.30;;;;;;;6.38;69.52;99186.98;105598;1253;97923;-81
2024/03/22 04:41:33;;;;;;;21.60;11.70;;;;;;;6.36;69.34;99190.94;105924;1253;111389;-80
2024/03/22 04:44:00;;;;;;;24.40;12.70;;;;;;;6.34;69.58;99184.73;105597;1257;98581;-80
2024/03/22 04:46:28;;;;;;;28.30;13.70;;;;;;;6.33;69.52;99185.13;105613;1270;107254;-81
2024/03/22 04:48:55;;;;;;;30.70;16.00;;;;;;;6.31;69.21;99188.05;105966;1253;98046;-81
2024/03/22 04:51:23;;;;;;;29.20;15.50;;;;;;;6.31;69.57;99187.73;106203;1257;98081;-81
2024/03/22 04:53:50;;;;;;;26.50;16.00;;;;;;;6.31;69.55;99181.89;105617;1257;109215;-81
2024/03/22 04:56:18;;;;;;;30.40;16.00;;;;;;;6.32;69.61;99183.97;105724;1257;97987;-81
2024/03/22 04:58:46;;;;;;;30.40;15.80;;;;;;;6.33;69.58;99184.77;105748;1257;107729;-81
2024/03/22 05:01:14;;;;;;;32.90;16.80;;;;;;;6.35;69.54;99186.77;105544;1266;98070;-75
2024/03/22 05:03:42;;;;;;;31.00;16.60;;;;;;;6.39;69.47;99189.38;105244;1257;97947;-74
2024/03/22 05:06:09;;;;;;;32.50;16.90;;;;;;;6.44;69.50;99187.39;105343;1256;111006;-74
2024/03/22 05:08:37;;;;;;;32.60;16.80;;;;;;;6.48;69.59;99187.15;105466;1258;97940;-74
2024/03/22 05:11:04;;;;;;;37.50;18.00;;;;;;;6.52;69.65;99187.47;105419;1253;107162;-76
2024/03/22 05:14:27;;;;;;;34.20;19.00;;;;;;;6.56;69.66;99187.06;105478;1253;98086;-85
2024/03/22 05:17:23;;;;;;;36.30;16.80;;;;;;;6.62;69.74;99187.31;105608;1257;97977;-73
2024/03/22 05:19:52;;;;;;;36.70;19.30;;;;;;;6.67;69.68;99194.09;105181;1254;111213;-75
2024/03/22 05:22:20;;;;;;;36.50;18.40;;;;;;;6.72;69.60;99193.45;105448;1257;99311;-75
2024/03/22 05:24:50;;;;;;;36.60;20.60;;;;;;;6.75;69.73;99190.61;105282;1257;107630;-76
2024/03/22 05:27:18;;;;;;;37.80;19.60;;;;;;;6.81;69.80;99196.15;105434;1258;97989;-76
2024/03/22 05:29:45;;;;;;;37.90;20.10;;;;;;;6.85;69.69;99200.34;105457;1257;97885;-75
2024/03/22 05:32:13;;;;;;;46.00;24.60;;;;;;;6.89;69.69;99204.52;105900;1257;112136;-76
2024/03/22 05:34:40;;;;;;;43.10;22.10;;;;;;;6.92;69.71;99208.05;105275;1257;97972;-75
2024/03/22 05:37:09;;;;;;;46.00;23.20;;;;;;;6.96;69.78;99212.58;105822;1253;107118;-75
2024/03/22 05:39:36;;;;;;;43.50;23.00;;;;;;;6.99;69.82;99207.12;105719;1253;98151;-75
2024/03/22 05:42:04;;;;;;;46.00;23.00;;;;;;;7.00;69.89;99206.88;105811;1257;97968;-75
2024/03/22 05:44:32;;;;;;;45.10;24.10;;;;;;;7.02;69.94;99210.52;105593;1256;110992;-75
2024/03/22 05:47:00;;;;;;;47.70;25.20;;;;;;;7.03;69.81;99211.87;105370;1253;98132;-77
2024/03/22 05:49:27;;;;;;;49.80;25.30;;;;;;;7.04;69.92;99218.17;105295;1265;107476;-75
2024/03/22 05:51:55;;;;;;;52.70;24.60;;;;;;;7.05;69.91;99221.96;105308;1257;97984;-74
2024/03/22 05:54:23;;;;;;;48.90;25.20;;;;;;;7.07;69.87;99223.43;105388;1257;97946;-76
2024/03/22 05:56:50;;;;;;;49.50;26.00;;;;;;;7.09;69.98;99225.11;105293;1257;111167;-75
2024/03/22 05:59:18;;;;;;;49.80;25.40;;;;;;;7.09;69.88;99228.11;105040;1253;98074;-75
2024/03/22 06:01:45;;;;;;;49.50;25.40;;;;;;;7.10;69.84;99226.83;105077;1272;106726;-76
2024/03/22 06:04:13;;;;;;;49.00;26.00;;;;;;;7.11;70.20;99225.69;105135;1258;98011;-76
2024/03/22 06:06:40;;;;;;;48.80;25.00;;;;;;;7.12;69.98;99231.96;105804;1253;97957;-76
2024/03/22 06:09:09;;;;;;;51.00;26.80;;;;;;;7.13;69.95;99231.02;105879;1257;111285;-77
2024/03/22 06:11:36;;;;;;;46.10;24.10;;;;;;;7.14;70.12;99237.48;105179;1258;98815;-75
2024/03/22 06:14:04;;;;;;;48.80;24.10;;;;;;;7.16;70.07;99237.40;105111;1256;107156;-75
2024/03/22 06:16:31;;;;;;;49.40;25.80;;;;;;;7.18;70.03;99240.11;105253;1253;97986;-75
2024/03/22 06:18:59;;;;;;;52.90;26.30;;;;;;;7.19;70.16;99242.37;105480;1258;97763;-74
2024/03/22 06:21:26;;;;;;;55.20;26.90;;;;;;;7.19;70.20;99241.27;105730;1256;110155;-75
2024/03/22 06:23:54;;;;;;;52.30;27.10;;;;;;;7.17;70.29;99241.41;105295;1258;98000;-74
2024/03/22 06:26:21;;;;;;;51.40;26.80;;;;;;;7.14;70.25;99242.05;105303;1253;107648;-74
2024/03/22 06:29:04;;;;;;;46.90;24.20;;;;;;;7.12;70.38;99243.96;104996;1253;99238;-76
2024/03/22 06:31:32;;;;;;;49.10;27.20;;;;;;;7.12;70.34;99245.40;105344;1257;99228;-74
2024/03/22 06:34:01;;;;;;;48.30;25.30;;;;;;;7.11;70.39;99248.61;105127;1255;111236;-75
2024/03/22 06:36:32;;;;;;;45.60;24.20;;;;;;;7.10;70.57;99255.35;105337;1258;97906;-75
2024/03/22 06:38:59;;;;;;;50.60;27.00;;;;;;;7.11;70.42;99254.24;105153;1258;107472;-75
2024/03/22 06:41:28;;;;;;;49.60;26.00;;;;;;;7.11;70.63;99259.20;105221;1257;97991;-75
2024/03/22 06:43:55;;;;;;;54.90;27.70;;;;;;;7.13;70.52;99261.01;105058;1257;97943;-74
2024/03/22 06:46:23;;;;;;;48.20;25.90;;;;;;;7.14;70.69;99260.44;105049;1256;111268;-75
2024/03/22 06:48:52;;;;;;;50.90;27.40;;;;;;;7.15;70.67;99262.48;105399;1253;97953;-75
2024/03/22 06:51:20;;;;;;;45.80;27.20;;;;;;;7.18;70.80;99258.30;105309;1258;107605;-75
2024/03/22 06:53:47;;;;;;;52.40;28.20;;;;;;;7.22;70.72;99256.31;105075;1258;98001;-74
2024/03/22 06:56:19;;;;;;;48.40;25.60;;;;;;;7.25;70.65;99258.58;105249;1258;98029;-73
2024/03/22 06:58:47;;;;;;;48.90;26.00;;;;;;;7.28;70.84;99259.48;105455;1257;110856;-76
2024/03/22 07:01:15;;;;;;;54.90;28.40;;;;;;;7.32;70.93;99258.40;105293;1253;97956;-75
2024/03/22 07:03:45;;;;;;;55.00;29.90;;;;;;;7.38;70.73;99260.35;105404;1253;106185;-75
2024/03/22 07:06:14;;;;;;;51.00;27.20;;;;;;;7.42;70.89;99259.43;105423;1258;98051;-75
2024/03/22 07:08:42;;;;;;;48.60;25.60;;;;;;;7.45;70.85;99262.40;105457;1257;98052;-77
2024/03/22 07:11:09;;;;;;;50.60;27.10;;;;;;;7.49;70.92;99259.92;105109;1259;111219;-78
2024/03/22 07:13:37;;;;;;;53.60;26.70;;;;;;;7.53;70.95;99260.61;105184;1257;97984;-78
2024/03/22 07:16:05;;;;;;;55.30;26.10;;;;;;;7.55;71.03;99253.90;105498;1259;107480;-76
2024/03/22 07:18:33;;;;;;;49.90;26.00;;;;;;;7.58;71.00;99248.28;105475;1254;97994;-74
2024/03/22 07:21:12;;;;;;;51.20;29.00;;;;;;;7.61;71.20;99244.94;105257;1256;97978;-78
2024/03/22 07:23:42;;;;;;;46.30;26.00;;;;;;;7.65;71.07;99242.42;105314;1256;111247;-77
2024/03/22 07:26:13;;;;;;;49.50;26.70;;;;;;;7.69;71.44;99233.52;105119;1253;99203;-77
2024/03/22 07:28:49;;;;;;;51.90;26.60;;;;;;;7.73;71.38;99233.61;105090;1254;107641;-75
2024/03/22 07:31:17;;;;;;;50.50;27.80;;;;;;;7.79;71.38;99248.65;105520;1259;97983;-73
2024/03/22 07:33:50;;;;;;;59.50;28.00;;;;;;;7.84;71.54;99249.95;105367;1257;97936;-77
2024/03/22 07:36:19;;;;;;;56.90;28.10;;;;;;;7.91;71.28;99244.27;105113;1257;111195;-75
2024/03/22 07:38:48;;;;;;;50.80;28.30;;;;;;;7.97;71.36;99244.30;105404;1256;98097;-77
2024/03/22 07:41:16;;;;;;;51.40;27.20;;;;;;;8.02;71.36;99245.17;105317;1258;106110;-77
2024/03/22 07:43:44;;;;;;;52.30;28.60;;;;;;;8.09;71.40;99244.28;105483;1256;97929;-75
2024/03/22 07:46:11;;;;;;;51.90;28.30;;;;;;;8.15;71.63;99242.30;105983;1258;97878;-77
2024/03/22 07:48:39;;;;;;;47.70;26.80;;;;;;;8.22;71.63;99235.36;105302;1259;110976;-77
2024/03/22 07:51:07;;;;;;;51.20;26.40;;;;;;;8.30;71.69;99234.70;105627;1257;97849;-77
2024/03/22 07:53:34;;;;;;;50.00;25.60;;;;;;;8.38;71.60;99228.40;105311;1256;107613;-77
2024/03/22 07:56:02;;;;;;;50.00;27.40;;;;;;;8.44;71.72;99227.32;105173;1258;98017;-77
2024/03/22 07:58:45;;;;;;;57.80;29.20;;;;;;;8.51;71.79;99229.26;105561;1257;97991;-76
2024/03/22 08:01:13;;;;;;;56.40;27.60;;;;;;;8.57;71.82;99228.50;105104;1258;111308;-77
2024/03/22 08:03:40;;;;;;;51.70;27.20;;;;;;;8.64;71.81;99226.65;105685;1257;97990;-77
2024/03/22 08:06:08;;;;;;;48.70;26.30;;;;;;;8.72;71.77;99222.48;105471;1258;106985;-75
2024/03/22 08:08:35;;;;;;;49.10;25.60;;;;;;;8.78;71.85;99218.17;105439;1258;98035;-77
2024/03/22 08:11:03;;;;;;;54.60;28.10;;;;;;;8.86;71.87;99216.14;105069;1258;99217;-73
2024/03/22 08:13:31;;;;;;;51.10;27.60;;;;;;;8.93;71.93;99213.91;105495;1258;111760;-74
2024/03/22 08:15:59;;;;;;;52.00;27.10;;;;;;;9.02;72.03;99212.46;105433;1253;99321;-74
2024/03/22 08:18:27;;;;;;;52.90;28.10;;;;;;;9.10;72.03;99216.71;105324;1257;107882;-76
2024/03/22 08:20:55;;;;;;;45.60;25.60;;;;;;;9.15;72.02;99219.60;105003;1258;97978;-74
2024/03/22 08:23:23;;;;;;;54.40;28.20;;;;;;;9.18;71.95;99218.14;105053;1258;98278;-75
2024/03/22 08:25:50;;;;;;;51.50;28.30;;;;;;;9.19;72.11;99222.13;105038;1258;111511;-75
2024/03/22 08:28:46;;;;;;;53.10;28.20;;;;;;;9.19;72.08;99221.42;105454;1258;99451;-76
2024/03/22 08:43:10;;;;;;;50.40;30.80;;;;;;;9.60;71.80;99230.30;102602;1288;649440;-75
2024/03/22 08:45:38;;;;;;;48.10;26.40;;;;;;;9.61;72.15;99229.38;104592;1265;149982;-77
2024/03/22 08:48:06;;;;;;;45.00;26.10;;;;;;;9.59;72.25;99224.92;104666;1270;96205;-77
2024/03/22 08:50:34;;;;;;;46.10;26.20;;;;;;;9.59;72.36;99221.02;104626;1269;108307;-76
2024/03/22 08:53:03;;;;;;;48.40;27.40;;;;;;;9.61;72.45;99227.77;104958;1274;95392;-77
2024/03/22 08:55:31;;;;;;;44.70;25.20;;;;;;;9.64;72.43;99225.47;105153;1263;107570;-76
2024/03/22 08:58:17;;;;;;;49.00;25.40;;;;;;;9.66;72.48;99223.73;104957;1260;95264;-78
2024/03/22 09:01:16;;;;;;;42.80;24.60;;;;;;;9.68;72.61;99219.33;104924;1257;95305;-76
2024/03/22 09:03:46;;;;;;;42.80;23.10;;;;;;;9.72;72.51;99222.46;105307;1261;108646;-75
2024/03/22 09:06:14;;;;;;;49.50;27.00;;;;;;;9.74;72.58;99220.77;105082;1263;95396;-77
2024/03/22 09:08:41;;;;;;;42.70;24.70;;;;;;;9.74;72.62;99223.57;104906;1261;107753;-73
2024/03/22 09:11:09;;;;;;;48.20;25.40;;;;;;;9.75;72.72;99217.30;104968;1257;96804;-75
2024/03/22 09:13:37;;;;;;;38.50;21.30;;;;;;;9.78;72.68;99214.24;105009;1257;96637;-76
2024/03/22 09:16:05;;;;;;;53.10;27.70;;;;;;;9.81;72.76;99207.84;104732;1260;111105;-77
2024/03/22 09:28:31;;;;;;;43.30;21.50;;;;;;;10.02;72.79;99207.72;105950;1268;96611;-82
2024/03/22 09:31:33;;;;;;;44.30;22.70;;;;;;;10.06;72.88;99201.89;105077;1268;97521;-77
2024/03/22 09:34:01;;;;;;;45.60;24.60;;;;;;;10.08;72.88;99205.13;105482;1254;109962;-77
2024/03/22 09:36:34;;;;;;;42.00;22.20;;;;;;;10.08;72.79;99204.23;106646;1255;96588;-79
2024/03/22 09:39:03;;;;;;;39.00;21.60;;;;;;;10.10;72.82;99204.69;105922;1254;106395;-77
2024/03/22 09:41:32;;;;;;;44.90;25.10;;;;;;;10.12;72.96;99202.76;105742;1276;96652;-76
2024/03/22 09:44:04;;;;;;;44.90;25.90;;;;;;;10.18;72.93;99204.67;105380;1254;96691;-78
2024/03/22 09:46:34;;;;;;;43.30;23.60;;;;;;;10.20;72.90;99203.23;105341;1259;110179;-75
2024/03/22 09:49:02;;;;;;;41.50;23.50;;;;;;;10.23;73.00;99200.95;105493;1264;96710;-77
2024/03/22 09:51:31;;;;;;;43.40;22.60;;;;;;;10.26;72.96;99201.80;105642;1257;107815;-76
2024/03/22 09:53:59;;;;;;;40.80;23.40;;;;;;;10.27;72.97;99201.88;105310;1254;97433;-76
2024/03/22 09:56:31;;;;;;;37.10;21.00;;;;;;;10.28;73.02;99205.39;105335;1254;97953;-76
2024/03/22 09:59:06;;;;;;;43.40;23.00;;;;;;;10.27;72.97;99203.29;105557;1260;109343;-78
2024/03/22 10:01:47;;;;;;;46.20;24.50;;;;;;;10.27;73.13;99202.73;105148;1261;96569;-77
2024/03/22 10:04:14;;;;;;;43.40;23.40;;;;;;;10.30;73.15;99201.69;105460;1260;107625;-75
2024/03/22 10:06:42;;;;;;;38.90;22.70;;;;;;;10.33;72.99;99203.09;105233;1257;97010;-77
2024/03/22 10:09:10;;;;;;;42.90;23.10;;;;;;;10.35;73.18;99202.25;105385;1257;97978;-76
2024/03/22 10:11:37;;;;;;;42.90;24.80;;;;;;;10.36;73.23;99203.04;105388;1259;110152;-76
2024/03/22 10:14:05;;;;;;;42.60;23.40;;;;;;;10.36;73.16;99202.19;105368;1254;97847;-75
2024/03/22 10:16:39;;;;;;;41.80;24.90;;;;;;;10.36;73.14;99202.19;104910;1260;374730;-75
2024/03/22 10:19:06;;;;;;;41.10;23.00;;;;;;;10.38;73.08;99194.42;105154;1263;96619;-76
2024/03/22 10:21:34;;;;;;;40.00;22.40;;;;;;;10.40;73.21;99194.84;104921;1257;96883;-75
2024/03/22 10:24:01;;;;;;;39.00;20.70;;;;;;;10.42;73.19;99191.83;105115;1260;109920;-75
2024/03/22 10:26:29;;;;;;;37.40;21.20;;;;;;;10.45;73.24;99187.61;105262;1257;96607;-75
2024/03/22 10:28:56;;;;;;;30.00;18.00;;;;;;;10.46;73.27;99188.73;105042;1261;106252;-75
2024/03/22 10:31:24;;;;;;;34.70;18.40;;;;;;;10.48;73.25;99188.41;104891;1271;97957;-75
2024/03/22 10:33:55;;;;;;;30.90;16.00;;;;;;;10.53;73.22;99190.39;105217;1257;97411;-75
2024/03/22 10:36:24;;;;;;;29.30;17.20;;;;;;;10.55;73.34;99185.45;104906;1263;110221;-76
2024/03/22 10:39:01;;;;;;;29.00;17.20;;;;;;;10.58;73.22;99184.38;105077;1263;96629;-77
2024/03/22 10:41:29;;;;;;;31.50;18.70;;;;;;;10.60;73.12;99182.70;105741;1260;108294;-77
2024/03/22 10:43:58;;;;;;;28.50;16.60;;;;;;;10.61;73.28;99175.84;105334;1261;96584;-77
2024/03/22 10:46:35;;;;;;;26.70;15.00;;;;;;;10.63;73.28;99178.36;105356;1260;96631;-79
2024/03/22 10:49:06;;;;;;;25.40;14.30;;;;;;;10.63;73.16;99174.77;106010;1256;109726;-78
2024/03/22 10:51:35;;;;;;;24.70;14.70;;;;;;;10.64;73.20;99171.36;106165;1257;96535;-77
2024/03/22 10:54:06;;;;;;;26.70;15.30;;;;;;;10.64;73.27;99166.39;106248;1261;107681;-79
2024/03/22 10:56:34;;;;;;;26.40;15.40;;;;;;;10.65;73.12;99164.89;105689;1261;96588;-77
2024/03/22 10:59:05;;;;;;;26.10;15.20;;;;;;;10.65;73.20;99159.21;105711;1259;97258;-77
2024/03/22 11:04:32;;;;;;;27.50;15.20;;;;;;;10.72;73.29;99157.67;103109;1288;638928;-78
2024/03/22 11:07:00;;;;;;;25.00;12.90;;;;;;;10.74;73.28;99153.27;104962;1269;411832;-79
2024/03/22 11:09:27;;;;;;;22.70;13.40;;;;;;;10.80;73.26;99147.36;104488;1269;95376;-74
2024/03/22 11:11:55;;;;;;;23.70;13.20;;;;;;;10.85;73.37;99144.63;104759;1262;96098;-73
2024/03/22 11:14:24;;;;;;;29.60;16.30;;;;;;;10.94;73.37;99140.46;105264;1273;95314;-74
2024/03/22 11:16:51;;;;;;;28.80;15.90;;;;;;;11.02;73.37;99138.45;106121;1261;149024;-79
2024/03/22 11:19:17;;;;;;;29.10;17.10;;;;;;;11.08;73.39;99131.81;105779;1261;95288;-78
2024/03/22 11:21:45;;;;;;;29.70;16.40;;;;;;;11.15;73.43;99128.30;105199;1257;96190;-78
2024/03/22 11:24:22;;;;;;;26.40;15.30;;;;;;;11.25;73.45;99126.47;105212;1254;95272;-80
2024/03/22 11:26:48;;;;;;;24.60;15.30;;;;;;;11.34;73.29;99123.36;105509;1262;95287;-77
2024/03/22 11:29:15;;;;;;;26.40;15.50;;;;;;;11.39;73.39;99120.85;105304;1255;98285;-77
2024/03/22 11:31:58;;;;;;;22.30;14.00;;;;;;;11.46;73.32;99115.84;102166;1296;636248;-78
2024/03/22 11:34:26;;;;;;;31.30;19.30;;;;;;;11.51;73.28;99111.63;105231;1270;95315;-77
2024/03/22 11:36:57;;;;;;;33.60;20.70;;;;;;;11.55;73.38;99111.16;104647;1270;95415;-79
2024/03/22 11:39:25;;;;;;;35.00;20.50;;;;;;;11.58;73.47;99108.41;104325;1269;109121;-77
2024/03/22 11:41:54;;;;;;;32.20;20.20;;;;;;;11.62;73.37;99105.80;104711;1270;96034;-75
2024/03/22 11:44:25;;;;;;;26.90;16.70;;;;;;;11.67;73.45;99097.09;104613;1268;108370;-79